sensor_id;sensor_type;location;lat;lon;timestamp;P1;durP1;ratioP1;P2;durP2;ratioP2
68247;SDS011;55064;49.636;12.164;2023-05-17T00:00:52;8.70;;;2.60;;
68247;SDS011;55064;49.636;12.164;2023-05-17T00:03:18;6.90;;;2.25;;
68247;SDS011;55064;49.636;12.164;2023-05-17T00:05:44;8.60;;;2.30;;
68247;SDS011;55064;49.636;12.164;2023-05-17T00:08:09;5.30;;;2.08;;
68247;SDS011;55064;49.636;12.164;2023-05-17T00:10:35;8.17;;;2.77;;
68247;SDS011;55064;49.636;12.164;2023-05-17T00:13:03;6.78;;;2.30;;
68247;SDS011;55064;49.636;12.164;2023-05-17T00:15:29;6.80;;;2.30;;
68247;SDS011;55064;49.636;12.164;2023-05-17T00:17:58;6.13;;;2.13;;
68247;SDS011;55064;49.636;12.164;2023-05-17T00:20:31;9.65;;;2.20;;
68247;SDS011;55064;49.636;12.164;2023-05-17T00:22:56;5.37;;;1.80;;
68247;SDS011;55064;49.636;12.164;2023-05-17T00:25:22;6.45;;;1.98;;
68247;SDS011;55064;49.636;12.164;2023-05-17T00:27:48;7.60;;;2.10;;
68247;SDS011;55064;49.636;12.164;2023-05-17T00:30:13;6.15;;;1.95;;
68247;SDS011;55064;49.636;12.164;2023-05-17T00:32:39;5.83;;;1.60;;
68247;SDS011;55064;49.636;12.164;2023-05-17T00:35:04;5.50;;;1.70;;
68247;SDS011;55064;49.636;12.164;2023-05-17T00:37:30;6.88;;;1.70;;
68247;SDS011;55064;49.636;12.164;2023-05-17T00:39:59;6.88;;;1.73;;
68247;SDS011;55064;49.636;12.164;2023-05-17T00:42:27;5.47;;;1.60;;
68247;SDS011;55064;49.636;12.164;2023-05-17T00:44:53;7.40;;;1.85;;
68247;SDS011;55064;49.636;12.164;2023-05-17T00:47:18;6.50;;;1.67;;
68247;SDS011;55064;49.636;12.164;2023-05-17T00:49:48;6.68;;;1.38;;
68247;SDS011;55064;49.636;12.164;2023-05-17T00:52:16;4.60;;;1.30;;
68247;SDS011;55064;49.636;12.164;2023-05-17T00:54:44;5.75;;;1.63;;
68247;SDS011;55064;49.636;12.164;2023-05-17T00:57:10;4.82;;;1.38;;
68247;SDS011;55064;49.636;12.164;2023-05-17T00:59:39;4.27;;;1.30;;
68247;SDS011;55064;49.636;12.164;2023-05-17T01:02:05;6.88;;;1.50;;
68247;SDS011;55064;49.636;12.164;2023-05-17T01:04:30;7.43;;;1.37;;
68247;SDS011;55064;49.636;12.164;2023-05-17T01:06:56;5.47;;;1.48;;
68247;SDS011;55064;49.636;12.164;2023-05-17T01:09:22;5.45;;;1.30;;
68247;SDS011;55064;49.636;12.164;2023-05-17T01:17:01;6.22;;;1.60;;
68247;SDS011;55064;49.636;12.164;2023-05-17T01:19:39;4.85;;;1.40;;
68247;SDS011;55064;49.636;12.164;2023-05-17T01:22:28;7.20;;;1.53;;
68247;SDS011;55064;49.636;12.164;2023-05-17T01:27:25;5.70;;;1.10;;
68247;SDS011;55064;49.636;12.164;2023-05-17T01:29:53;3.55;;;1.20;;
68247;SDS011;55064;49.636;12.164;2023-05-17T01:32:21;4.15;;;1.40;;
68247;SDS011;55064;49.636;12.164;2023-05-17T01:34:48;7.32;;;1.25;;
68247;SDS011;55064;49.636;12.164;2023-05-17T01:37:14;9.83;;;1.60;;
68247;SDS011;55064;49.636;12.164;2023-05-17T01:39:39;4.37;;;1.10;;
68247;SDS011;55064;49.636;12.164;2023-05-17T01:42:21;6.72;;;1.73;;
68247;SDS011;55064;49.636;12.164;2023-05-17T01:45:05;6.18;;;1.30;;
68247;SDS011;55064;49.636;12.164;2023-05-17T01:49:56;4.77;;;1.23;;
68247;SDS011;55064;49.636;12.164;2023-05-17T01:55:14;6.65;;;1.20;;
68247;SDS011;55064;49.636;12.164;2023-05-17T01:57:42;8.23;;;1.10;;
68247;SDS011;55064;49.636;12.164;2023-05-17T02:00:11;7.32;;;1.30;;
68247;SDS011;55064;49.636;12.164;2023-05-17T02:02:40;6.47;;;1.20;;
68247;SDS011;55064;49.636;12.164;2023-05-17T02:05:08;7.40;;;1.73;;
68247;SDS011;55064;49.636;12.164;2023-05-17T02:07:33;5.60;;;1.33;;
68247;SDS011;55064;49.636;12.164;2023-05-17T02:10:00;8.30;;;1.47;;
68247;SDS011;55064;49.636;12.164;2023-05-17T02:12:25;7.55;;;1.50;;
68247;SDS011;55064;49.636;12.164;2023-05-17T02:14:56;4.30;;;1.40;;
68247;SDS011;55064;49.636;12.164;2023-05-17T02:17:22;7.65;;;1.42;;
68247;SDS011;55064;49.636;12.164;2023-05-17T02:19:49;4.60;;;1.30;;
68247;SDS011;55064;49.636;12.164;2023-05-17T02:22:15;5.20;;;1.20;;
68247;SDS011;55064;49.636;12.164;2023-05-17T02:24:43;7.38;;;1.45;;
68247;SDS011;55064;49.636;12.164;2023-05-17T02:27:09;4.47;;;1.43;;
68247;SDS011;55064;49.636;12.164;2023-05-17T02:29:35;6.68;;;1.63;;
68247;SDS011;55064;49.636;12.164;2023-05-17T02:32:01;4.87;;;1.37;;
68247;SDS011;55064;49.636;12.164;2023-05-17T02:34:29;5.68;;;1.10;;
68247;SDS011;55064;49.636;12.164;2023-05-17T02:36:54;6.38;;;1.67;;
68247;SDS011;55064;49.636;12.164;2023-05-17T02:39:19;5.67;;;1.20;;
68247;SDS011;55064;49.636;12.164;2023-05-17T02:41:45;5.90;;;1.20;;
68247;SDS011;55064;49.636;12.164;2023-05-17T02:44:11;6.70;;;1.13;;
68247;SDS011;55064;49.636;12.164;2023-05-17T02:46:37;8.60;;;1.42;;
68247;SDS011;55064;49.636;12.164;2023-05-17T02:49:02;8.03;;;1.40;;
68247;SDS011;55064;49.636;12.164;2023-05-17T02:51:31;6.05;;;1.58;;
68247;SDS011;55064;49.636;12.164;2023-05-17T02:53:56;4.33;;;1.53;;
68247;SDS011;55064;49.636;12.164;2023-05-17T02:56:22;4.63;;;1.50;;
68247;SDS011;55064;49.636;12.164;2023-05-17T02:58:49;6.40;;;1.67;;
68247;SDS011;55064;49.636;12.164;2023-05-17T03:01:21;6.22;;;1.58;;
68247;SDS011;55064;49.636;12.164;2023-05-17T03:03:47;5.82;;;1.70;;
68247;SDS011;55064;49.636;12.164;2023-05-17T03:06:13;6.83;;;1.60;;
68247;SDS011;55064;49.636;12.164;2023-05-17T03:08:39;7.47;;;1.67;;
68247;SDS011;55064;49.636;12.164;2023-05-17T03:11:04;10.77;;;1.90;;
68247;SDS011;55064;49.636;12.164;2023-05-17T03:13:30;5.23;;;1.73;;
68247;SDS011;55064;49.636;12.164;2023-05-17T03:15:56;6.03;;;1.42;;
68247;SDS011;55064;49.636;12.164;2023-05-17T03:18:22;6.05;;;1.70;;
68247;SDS011;55064;49.636;12.164;2023-05-17T03:20:49;7.30;;;1.97;;
68247;SDS011;55064;49.636;12.164;2023-05-17T03:23:15;8.60;;;1.90;;
68247;SDS011;55064;49.636;12.164;2023-05-17T03:25:42;6.25;;;1.67;;
68247;SDS011;55064;49.636;12.164;2023-05-17T03:28:08;6.03;;;1.70;;
68247;SDS011;55064;49.636;12.164;2023-05-17T03:30:34;5.73;;;1.73;;
68247;SDS011;55064;49.636;12.164;2023-05-17T03:33:01;9.40;;;2.75;;
68247;SDS011;55064;49.636;12.164;2023-05-17T03:35:26;7.53;;;2.05;;
68247;SDS011;55064;49.636;12.164;2023-05-17T03:37:52;6.30;;;1.90;;
68247;SDS011;55064;49.636;12.164;2023-05-17T03:40:19;7.43;;;1.85;;
68247;SDS011;55064;49.636;12.164;2023-05-17T03:42:45;7.20;;;1.67;;
68247;SDS011;55064;49.636;12.164;2023-05-17T03:45:13;6.50;;;1.70;;
68247;SDS011;55064;49.636;12.164;2023-05-17T03:47:39;6.20;;;2.10;;
68247;SDS011;55064;49.636;12.164;2023-05-17T03:50:07;5.28;;;1.80;;
68247;SDS011;55064;49.636;12.164;2023-05-17T03:52:33;7.43;;;2.00;;
68247;SDS011;55064;49.636;12.164;2023-05-17T03:54:58;7.35;;;1.98;;
68247;SDS011;55064;49.636;12.164;2023-05-17T03:57:23;7.37;;;1.80;;
68247;SDS011;55064;49.636;12.164;2023-05-17T03:59:51;6.97;;;1.90;;
68247;SDS011;55064;49.636;12.164;2023-05-17T04:02:18;6.78;;;1.73;;
68247;SDS011;55064;49.636;12.164;2023-05-17T04:04:49;9.10;;;2.05;;
68247;SDS011;55064;49.636;12.164;2023-05-17T04:07:16;5.73;;;1.70;;
68247;SDS011;55064;49.636;12.164;2023-05-17T04:09:44;8.75;;;2.08;;
68247;SDS011;55064;49.636;12.164;2023-05-17T04:12:10;6.73;;;1.70;;
68247;SDS011;55064;49.636;12.164;2023-05-17T04:14:37;6.40;;;1.60;;
68247;SDS011;55064;49.636;12.164;2023-05-17T04:17:05;5.85;;;1.70;;
68247;SDS011;55064;49.636;12.164;2023-05-17T04:19:30;8.13;;;1.70;;
68247;SDS011;55064;49.636;12.164;2023-05-17T04:21:56;6.90;;;1.67;;
68247;SDS011;55064;49.636;12.164;2023-05-17T04:24:21;6.73;;;1.60;;
68247;SDS011;55064;49.636;12.164;2023-05-17T04:26:47;8.03;;;1.83;;
68247;SDS011;55064;49.636;12.164;2023-05-17T04:29:16;6.43;;;1.70;;
68247;SDS011;55064;49.636;12.164;2023-05-17T04:31:43;10.15;;;1.80;;
68247;SDS011;55064;49.636;12.164;2023-05-17T04:34:11;8.02;;;1.67;;
68247;SDS011;55064;49.636;12.164;2023-05-17T04:36:38;10.27;;;2.50;;
68247;SDS011;55064;49.636;12.164;2023-05-17T04:39:06;5.17;;;2.00;;
68247;SDS011;55064;49.636;12.164;2023-05-17T04:41:34;7.93;;;1.80;;
68247;SDS011;55064;49.636;12.164;2023-05-17T04:43:59;10.13;;;2.37;;
68247;SDS011;55064;49.636;12.164;2023-05-17T04:46:25;9.70;;;2.00;;
68247;SDS011;55064;49.636;12.164;2023-05-17T04:48:57;6.03;;;1.88;;
68247;SDS011;55064;49.636;12.164;2023-05-17T04:51:22;6.63;;;1.80;;
68247;SDS011;55064;49.636;12.164;2023-05-17T04:53:48;7.57;;;1.70;;
68247;SDS011;55064;49.636;12.164;2023-05-17T04:56:13;6.97;;;1.87;;
68247;SDS011;55064;49.636;12.164;2023-05-17T04:58:39;9.80;;;2.10;;
68247;SDS011;55064;49.636;12.164;2023-05-17T05:01:11;7.03;;;2.00;;
68247;SDS011;55064;49.636;12.164;2023-05-17T05:03:38;6.47;;;1.88;;
68247;SDS011;55064;49.636;12.164;2023-05-17T05:06:04;7.10;;;1.60;;
68247;SDS011;55064;49.636;12.164;2023-05-17T05:08:31;13.00;;;2.50;;
68247;SDS011;55064;49.636;12.164;2023-05-17T05:11:02;6.07;;;1.80;;
68247;SDS011;55064;49.636;12.164;2023-05-17T05:13:30;6.07;;;1.95;;
68247;SDS011;55064;49.636;12.164;2023-05-17T05:16:02;8.10;;;2.40;;
68247;SDS011;55064;49.636;12.164;2023-05-17T05:18:27;9.50;;;2.23;;
68247;SDS011;55064;49.636;12.164;2023-05-17T05:20:52;8.20;;;1.73;;
68247;SDS011;55064;49.636;12.164;2023-05-17T05:23:18;7.85;;;1.92;;
68247;SDS011;55064;49.636;12.164;2023-05-17T05:25:46;7.25;;;2.00;;
68247;SDS011;55064;49.636;12.164;2023-05-17T05:28:11;9.07;;;2.30;;
68247;SDS011;55064;49.636;12.164;2023-05-17T05:30:45;7.90;;;2.00;;
68247;SDS011;55064;49.636;12.164;2023-05-17T05:33:12;6.57;;;2.20;;
68247;SDS011;55064;49.636;12.164;2023-05-17T05:35:45;8.02;;;2.33;;
68247;SDS011;55064;49.636;12.164;2023-05-17T05:38:11;9.00;;;2.30;;
68247;SDS011;55064;49.636;12.164;2023-05-17T05:40:40;9.27;;;2.78;;
68247;SDS011;55064;49.636;12.164;2023-05-17T05:43:10;9.60;;;2.30;;
68247;SDS011;55064;49.636;12.164;2023-05-17T05:45:39;8.68;;;2.53;;
68247;SDS011;55064;49.636;12.164;2023-05-17T05:48:13;7.07;;;2.03;;
68247;SDS011;55064;49.636;12.164;2023-05-17T05:50:42;8.03;;;2.40;;
68247;SDS011;55064;49.636;12.164;2023-05-17T05:53:08;9.93;;;2.45;;
68247;SDS011;55064;49.636;12.164;2023-05-17T05:55:35;9.10;;;2.30;;
68247;SDS011;55064;49.636;12.164;2023-05-17T05:58:00;8.23;;;2.30;;
68247;SDS011;55064;49.636;12.164;2023-05-17T06:00:25;9.43;;;1.93;;
68247;SDS011;55064;49.636;12.164;2023-05-17T06:02:52;10.88;;;2.47;;
68247;SDS011;55064;49.636;12.164;2023-05-17T06:05:20;8.60;;;2.45;;
68247;SDS011;55064;49.636;12.164;2023-05-17T06:07:50;8.13;;;2.20;;
68247;SDS011;55064;49.636;12.164;2023-05-17T06:10:18;14.13;;;2.67;;
68247;SDS011;55064;49.636;12.164;2023-05-17T06:12:43;7.65;;;2.42;;
68247;SDS011;55064;49.636;12.164;2023-05-17T06:15:11;9.07;;;2.53;;
68247;SDS011;55064;49.636;12.164;2023-05-17T06:17:37;9.35;;;2.47;;
68247;SDS011;55064;49.636;12.164;2023-05-17T06:20:02;8.57;;;2.57;;
68247;SDS011;55064;49.636;12.164;2023-05-17T06:22:29;9.65;;;3.15;;
68247;SDS011;55064;49.636;12.164;2023-05-17T06:24:54;8.87;;;2.10;;
68247;SDS011;55064;49.636;12.164;2023-05-17T06:27:20;8.90;;;2.73;;
68247;SDS011;55064;49.636;12.164;2023-05-17T06:29:46;10.85;;;2.80;;
68247;SDS011;55064;49.636;12.164;2023-05-17T06:32:14;6.72;;;2.70;;
68247;SDS011;55064;49.636;12.164;2023-05-17T06:34:39;8.60;;;2.40;;
68247;SDS011;55064;49.636;12.164;2023-05-17T06:37:07;10.33;;;2.70;;
68247;SDS011;55064;49.636;12.164;2023-05-17T06:39:32;8.43;;;3.00;;
68247;SDS011;55064;49.636;12.164;2023-05-17T06:41:58;9.30;;;2.80;;
68247;SDS011;55064;49.636;12.164;2023-05-17T06:44:25;8.85;;;3.00;;
68247;SDS011;55064;49.636;12.164;2023-05-17T06:46:50;10.70;;;3.13;;
68247;SDS011;55064;49.636;12.164;2023-05-17T06:49:17;8.57;;;2.77;;
68247;SDS011;55064;49.636;12.164;2023-05-17T06:51:42;11.00;;;3.17;;
68247;SDS011;55064;49.636;12.164;2023-05-17T06:54:08;10.00;;;2.50;;
68247;SDS011;55064;49.636;12.164;2023-05-17T06:56:34;8.77;;;3.00;;
68247;SDS011;55064;49.636;12.164;2023-05-17T06:59:01;11.40;;;2.80;;
68247;SDS011;55064;49.636;12.164;2023-05-17T07:01:27;12.57;;;2.97;;
68247;SDS011;55064;49.636;12.164;2023-05-17T07:03:55;8.77;;;2.83;;
68247;SDS011;55064;49.636;12.164;2023-05-17T07:06:21;9.67;;;2.70;;
68247;SDS011;55064;49.636;12.164;2023-05-17T07:08:51;8.68;;;2.78;;
68247;SDS011;55064;49.636;12.164;2023-05-17T07:11:19;11.40;;;2.70;;
68247;SDS011;55064;49.636;12.164;2023-05-17T07:13:48;8.88;;;2.53;;
68247;SDS011;55064;49.636;12.164;2023-05-17T07:16:13;10.13;;;2.77;;
68247;SDS011;55064;49.636;12.164;2023-05-17T07:18:39;12.03;;;3.50;;
68247;SDS011;55064;49.636;12.164;2023-05-17T07:21:04;11.15;;;2.78;;
68247;SDS011;55064;49.636;12.164;2023-05-17T07:23:30;8.73;;;2.83;;
68247;SDS011;55064;49.636;12.164;2023-05-17T07:25:56;12.23;;;2.90;;
68247;SDS011;55064;49.636;12.164;2023-05-17T07:28:28;11.70;;;3.13;;
68247;SDS011;55064;49.636;12.164;2023-05-17T07:30:53;10.10;;;3.00;;
68247;SDS011;55064;49.636;12.164;2023-05-17T07:33:19;9.07;;;2.83;;
68247;SDS011;55064;49.636;12.164;2023-05-17T07:35:44;10.13;;;2.77;;
68247;SDS011;55064;49.636;12.164;2023-05-17T07:38:09;9.57;;;3.40;;
68247;SDS011;55064;49.636;12.164;2023-05-17T07:40:35;7.63;;;2.43;;
68247;SDS011;55064;49.636;12.164;2023-05-17T07:43:01;9.33;;;2.37;;
68247;SDS011;55064;49.636;12.164;2023-05-17T07:45:27;7.68;;;2.25;;
68247;SDS011;55064;49.636;12.164;2023-05-17T07:47:56;9.07;;;2.67;;
68247;SDS011;55064;49.636;12.164;2023-05-17T07:50:21;8.48;;;2.70;;
68247;SDS011;55064;49.636;12.164;2023-05-17T07:52:49;9.32;;;2.88;;
68247;SDS011;55064;49.636;12.164;2023-05-17T07:55:18;7.20;;;2.40;;
68247;SDS011;55064;49.636;12.164;2023-05-17T07:57:46;13.00;;;2.83;;
68247;SDS011;55064;49.636;12.164;2023-05-17T08:00:12;7.60;;;2.30;;
68247;SDS011;55064;49.636;12.164;2023-05-17T08:02:38;10.73;;;2.35;;
68247;SDS011;55064;49.636;12.164;2023-05-17T08:05:04;7.82;;;2.70;;
68247;SDS011;55064;49.636;12.164;2023-05-17T08:07:30;10.98;;;2.65;;
68247;SDS011;55064;49.636;12.164;2023-05-17T08:09:58;8.45;;;2.55;;
68247;SDS011;55064;49.636;12.164;2023-05-17T08:12:23;8.80;;;2.33;;
68247;SDS011;55064;49.636;12.164;2023-05-17T08:14:49;7.33;;;2.40;;
68247;SDS011;55064;49.636;12.164;2023-05-17T08:17:14;8.60;;;2.30;;
68247;SDS011;55064;49.636;12.164;2023-05-17T08:19:41;9.20;;;2.23;;
68247;SDS011;55064;49.636;12.164;2023-05-17T08:22:06;7.28;;;2.10;;
68247;SDS011;55064;49.636;12.164;2023-05-17T08:24:32;8.57;;;2.00;;
68247;SDS011;55064;49.636;12.164;2023-05-17T08:26:57;8.67;;;2.53;;
68247;SDS011;55064;49.636;12.164;2023-05-17T08:29:22;6.70;;;2.23;;
68247;SDS011;55064;49.636;12.164;2023-05-17T08:31:49;10.90;;;2.50;;
68247;SDS011;55064;49.636;12.164;2023-05-17T08:34:15;7.28;;;2.33;;
68247;SDS011;55064;49.636;12.164;2023-05-17T08:36:41;6.93;;;2.00;;
68247;SDS011;55064;49.636;12.164;2023-05-17T08:39:06;8.90;;;2.37;;
68247;SDS011;55064;49.636;12.164;2023-05-17T08:41:34;8.38;;;2.50;;
68247;SDS011;55064;49.636;12.164;2023-05-17T08:44:06;9.68;;;2.35;;
68247;SDS011;55064;49.636;12.164;2023-05-17T08:46:33;8.02;;;2.05;;
68247;SDS011;55064;49.636;12.164;2023-05-17T08:49:01;8.53;;;2.30;;
68247;SDS011;55064;49.636;12.164;2023-05-17T08:51:29;7.68;;;2.33;;
68247;SDS011;55064;49.636;12.164;2023-05-17T08:53:56;8.10;;;2.22;;
68247;SDS011;55064;49.636;12.164;2023-05-17T08:56:23;7.53;;;2.40;;
68247;SDS011;55064;49.636;12.164;2023-05-17T08:58:54;8.52;;;2.85;;
68247;SDS011;55064;49.636;12.164;2023-05-17T09:01:21;8.33;;;2.27;;
68247;SDS011;55064;49.636;12.164;2023-05-17T09:03:49;7.25;;;2.33;;
68247;SDS011;55064;49.636;12.164;2023-05-17T09:06:23;8.43;;;2.65;;
68247;SDS011;55064;49.636;12.164;2023-05-17T09:08:51;7.93;;;2.20;;
68247;SDS011;55064;49.636;12.164;2023-05-17T09:11:27;7.93;;;2.35;;
68247;SDS011;55064;49.636;12.164;2023-05-17T09:14:00;9.00;;;2.20;;
68247;SDS011;55064;49.636;12.164;2023-05-17T09:16:28;8.20;;;2.10;;
68247;SDS011;55064;49.636;12.164;2023-05-17T09:18:54;7.28;;;2.30;;
68247;SDS011;55064;49.636;12.164;2023-05-17T09:21:22;9.80;;;2.47;;
68247;SDS011;55064;49.636;12.164;2023-05-17T09:23:50;8.05;;;2.20;;
68247;SDS011;55064;49.636;12.164;2023-05-17T09:26:16;7.05;;;2.25;;
68247;SDS011;55064;49.636;12.164;2023-05-17T09:28:42;9.77;;;2.80;;
68247;SDS011;55064;49.636;12.164;2023-05-17T09:31:09;9.95;;;3.03;;
68247;SDS011;55064;49.636;12.164;2023-05-17T09:33:45;10.38;;;3.38;;
68247;SDS011;55064;49.636;12.164;2023-05-17T09:38:41;8.43;;;3.07;;
68247;SDS011;55064;49.636;12.164;2023-05-17T09:41:07;7.88;;;2.53;;
68247;SDS011;55064;49.636;12.164;2023-05-17T09:43:35;8.18;;;2.63;;
68247;SDS011;55064;49.636;12.164;2023-05-17T09:46:03;8.40;;;2.63;;
68247;SDS011;55064;49.636;12.164;2023-05-17T09:48:31;8.50;;;2.80;;
68247;SDS011;55064;49.636;12.164;2023-05-17T09:50:59;9.38;;;2.53;;
68247;SDS011;55064;49.636;12.164;2023-05-17T09:53:29;8.25;;;2.20;;
68247;SDS011;55064;49.636;12.164;2023-05-17T09:56:00;8.60;;;2.40;;
68247;SDS011;55064;49.636;12.164;2023-05-17T09:58:31;6.53;;;2.20;;
68247;SDS011;55064;49.636;12.164;2023-05-17T10:01:01;7.68;;;2.30;;
68247;SDS011;55064;49.636;12.164;2023-05-17T10:03:30;8.20;;;2.53;;
68247;SDS011;55064;49.636;12.164;2023-05-17T10:05:58;8.48;;;2.30;;
68247;SDS011;55064;49.636;12.164;2023-05-17T10:08:26;7.43;;;2.10;;
68247;SDS011;55064;49.636;12.164;2023-05-17T10:10:54;7.70;;;2.03;;
68247;SDS011;55064;49.636;12.164;2023-05-17T10:13:23;7.25;;;2.15;;
68247;SDS011;55064;49.636;12.164;2023-05-17T10:15:51;6.55;;;1.95;;
68247;SDS011;55064;49.636;12.164;2023-05-17T10:18:18;8.32;;;2.20;;
68247;SDS011;55064;49.636;12.164;2023-05-17T10:20:45;7.23;;;2.00;;
68247;SDS011;55064;49.636;12.164;2023-05-17T10:23:13;10.18;;;2.28;;
68247;SDS011;55064;49.636;12.164;2023-05-17T10:25:44;8.57;;;2.08;;
68247;SDS011;55064;49.636;12.164;2023-05-17T10:28:10;8.55;;;2.20;;
68247;SDS011;55064;49.636;12.164;2023-05-17T10:30:38;6.07;;;1.92;;
68247;SDS011;55064;49.636;12.164;2023-05-17T10:33:05;7.00;;;2.10;;
68247;SDS011;55064;49.636;12.164;2023-05-17T10:35:31;7.00;;;1.75;;
68247;SDS011;55064;49.636;12.164;2023-05-17T10:37:58;7.13;;;1.98;;
68247;SDS011;55064;49.636;12.164;2023-05-17T10:40:32;8.23;;;2.30;;
68247;SDS011;55064;49.636;12.164;2023-05-17T10:43:00;7.63;;;2.22;;
68247;SDS011;55064;49.636;12.164;2023-05-17T10:45:26;7.20;;;2.17;;
68247;SDS011;55064;49.636;12.164;2023-05-17T10:47:53;7.00;;;2.37;;
68247;SDS011;55064;49.636;12.164;2023-05-17T10:50:23;7.03;;;1.98;;
68247;SDS011;55064;49.636;12.164;2023-05-17T10:52:56;7.38;;;2.28;;
68247;SDS011;55064;49.636;12.164;2023-05-17T10:55:23;7.35;;;2.10;;
68247;SDS011;55064;49.636;12.164;2023-05-17T11:00:46;7.17;;;2.00;;
68247;SDS011;55064;49.636;12.164;2023-05-17T11:03:19;7.35;;;2.00;;
68247;SDS011;55064;49.636;12.164;2023-05-17T11:08:34;12.88;;;2.45;;
68247;SDS011;55064;49.636;12.164;2023-05-17T11:11:10;6.53;;;2.30;;
68247;SDS011;55064;49.636;12.164;2023-05-17T11:13:43;8.73;;;2.40;;
68247;SDS011;55064;49.636;12.164;2023-05-17T11:16:12;8.02;;;1.95;;
68247;SDS011;55064;49.636;12.164;2023-05-17T11:18:44;6.88;;;2.10;;
68247;SDS011;55064;49.636;12.164;2023-05-17T11:21:13;8.25;;;2.20;;
68247;SDS011;55064;49.636;12.164;2023-05-17T11:23:46;7.22;;;2.00;;
68247;SDS011;55064;49.636;12.164;2023-05-17T11:29:00;8.27;;;2.15;;
68247;SDS011;55064;49.636;12.164;2023-05-17T11:31:33;8.10;;;2.25;;
68247;SDS011;55064;49.636;12.164;2023-05-17T11:34:03;6.97;;;2.13;;
68247;SDS011;55064;49.636;12.164;2023-05-17T11:36:30;7.40;;;2.10;;
68247;SDS011;55064;49.636;12.164;2023-05-17T11:39:14;6.80;;;2.13;;
68247;SDS011;55064;49.636;12.164;2023-05-17T11:41:47;10.73;;;2.30;;
68247;SDS011;55064;49.636;12.164;2023-05-17T11:44:27;7.97;;;2.03;;
68247;SDS011;55064;49.636;12.164;2023-05-17T11:47:03;7.68;;;2.08;;
68247;SDS011;55064;49.636;12.164;2023-05-17T11:49:38;10.15;;;2.00;;
68247;SDS011;55064;49.636;12.164;2023-05-17T11:52:05;6.07;;;1.93;;
68247;SDS011;55064;49.636;12.164;2023-05-17T11:54:32;8.68;;;2.00;;
68247;SDS011;55064;49.636;12.164;2023-05-17T11:56:58;8.15;;;2.33;;
68247;SDS011;55064;49.636;12.164;2023-05-17T11:59:26;8.05;;;2.35;;
68247;SDS011;55064;49.636;12.164;2023-05-17T12:01:52;7.67;;;1.90;;
68247;SDS011;55064;49.636;12.164;2023-05-17T12:04:24;6.80;;;2.20;;
68247;SDS011;55064;49.636;12.164;2023-05-17T12:06:59;7.68;;;2.08;;
68247;SDS011;55064;49.636;12.164;2023-05-17T12:09:25;7.50;;;2.20;;
68247;SDS011;55064;49.636;12.164;2023-05-17T12:11:51;6.38;;;2.05;;
68247;SDS011;55064;49.636;12.164;2023-05-17T12:14:18;8.00;;;2.10;;
68247;SDS011;55064;49.636;12.164;2023-05-17T12:16:45;9.13;;;2.20;;
68247;SDS011;55064;49.636;12.164;2023-05-17T12:19:26;7.32;;;2.10;;
68247;SDS011;55064;49.636;12.164;2023-05-17T12:22:04;6.18;;;2.30;;
68247;SDS011;55064;49.636;12.164;2023-05-17T12:24:39;6.70;;;2.17;;
68247;SDS011;55064;49.636;12.164;2023-05-17T12:27:13;7.75;;;2.13;;
68247;SDS011;55064;49.636;12.164;2023-05-17T12:32:57;7.13;;;2.13;;
68247;SDS011;55064;49.636;12.164;2023-05-17T12:35:28;10.95;;;2.67;;
68247;SDS011;55064;49.636;12.164;2023-05-17T12:37:53;8.50;;;2.10;;
68247;SDS011;55064;49.636;12.164;2023-05-17T12:40:21;10.65;;;2.70;;
68247;SDS011;55064;49.636;12.164;2023-05-17T12:42:59;6.97;;;2.15;;
68247;SDS011;55064;49.636;12.164;2023-05-17T12:45:28;8.35;;;2.42;;
68247;SDS011;55064;49.636;12.164;2023-05-17T12:47:58;6.33;;;2.00;;
68247;SDS011;55064;49.636;12.164;2023-05-17T12:50:27;8.60;;;2.42;;
68247;SDS011;55064;49.636;12.164;2023-05-17T12:52:56;7.72;;;2.53;;
68247;SDS011;55064;49.636;12.164;2023-05-17T12:55:21;9.17;;;2.50;;
68247;SDS011;55064;49.636;12.164;2023-05-17T12:57:48;10.70;;;2.53;;
68247;SDS011;55064;49.636;12.164;2023-05-17T13:00:15;6.97;;;2.17;;
68247;SDS011;55064;49.636;12.164;2023-05-17T13:02:41;7.55;;;2.28;;
68247;SDS011;55064;49.636;12.164;2023-05-17T13:05:15;7.50;;;2.00;;
68247;SDS011;55064;49.636;12.164;2023-05-17T13:07:48;6.70;;;2.17;;
68247;SDS011;55064;49.636;12.164;2023-05-17T13:10:25;7.72;;;2.38;;
68247;SDS011;55064;49.636;12.164;2023-05-17T13:12:55;7.70;;;2.88;;
68247;SDS011;55064;49.636;12.164;2023-05-17T13:15:27;9.65;;;3.25;;
68247;SDS011;55064;49.636;12.164;2023-05-17T13:17:53;9.13;;;3.63;;
68247;SDS011;55064;49.636;12.164;2023-05-17T13:20:19;8.65;;;2.90;;
68247;SDS011;55064;49.636;12.164;2023-05-17T13:22:49;8.37;;;2.53;;
68247;SDS011;55064;49.636;12.164;2023-05-17T13:25:17;7.38;;;2.65;;
68247;SDS011;55064;49.636;12.164;2023-05-17T13:27:46;8.30;;;2.40;;
68247;SDS011;55064;49.636;12.164;2023-05-17T13:30:15;9.43;;;2.20;;
68247;SDS011;55064;49.636;12.164;2023-05-17T13:32:42;7.35;;;2.20;;
68247;SDS011;55064;49.636;12.164;2023-05-17T13:35:11;9.07;;;2.40;;
68247;SDS011;55064;49.636;12.164;2023-05-17T13:37:38;9.07;;;2.30;;
68247;SDS011;55064;49.636;12.164;2023-05-17T13:40:04;7.07;;;2.45;;
68247;SDS011;55064;49.636;12.164;2023-05-17T13:42:35;11.80;;;2.35;;
68247;SDS011;55064;49.636;12.164;2023-05-17T13:45:01;7.33;;;2.20;;
68247;SDS011;55064;49.636;12.164;2023-05-17T13:47:29;8.75;;;2.45;;
68247;SDS011;55064;49.636;12.164;2023-05-17T13:49:55;9.50;;;3.05;;
68247;SDS011;55064;49.636;12.164;2023-05-17T13:52:23;7.28;;;2.20;;
68247;SDS011;55064;49.636;12.164;2023-05-17T13:54:49;7.63;;;2.50;;
68247;SDS011;55064;49.636;12.164;2023-05-17T13:57:14;7.87;;;2.37;;
68247;SDS011;55064;49.636;12.164;2023-05-17T13:59:40;9.00;;;2.67;;
68247;SDS011;55064;49.636;12.164;2023-05-17T14:02:05;8.73;;;2.67;;
68247;SDS011;55064;49.636;12.164;2023-05-17T14:04:33;7.30;;;2.20;;
68247;SDS011;55064;49.636;12.164;2023-05-17T14:07:00;7.77;;;2.40;;
68247;SDS011;55064;49.636;12.164;2023-05-17T14:09:33;7.40;;;2.10;;
68247;SDS011;55064;49.636;12.164;2023-05-17T14:12:00;9.20;;;2.50;;
68247;SDS011;55064;49.636;12.164;2023-05-17T14:14:26;10.23;;;2.28;;
68247;SDS011;55064;49.636;12.164;2023-05-17T14:16:53;7.45;;;2.30;;
68247;SDS011;55064;49.636;12.164;2023-05-17T14:19:19;5.85;;;2.30;;
68247;SDS011;55064;49.636;12.164;2023-05-17T14:21:46;7.10;;;2.20;;
68247;SDS011;55064;49.636;12.164;2023-05-17T14:24:13;7.20;;;2.15;;
68247;SDS011;55064;49.636;12.164;2023-05-17T14:26:44;9.27;;;2.33;;
68247;SDS011;55064;49.636;12.164;2023-05-17T14:29:10;7.97;;;2.42;;
68247;SDS011;55064;49.636;12.164;2023-05-17T14:31:35;9.40;;;2.70;;
68247;SDS011;55064;49.636;12.164;2023-05-17T14:34:01;8.07;;;2.43;;
68247;SDS011;55064;49.636;12.164;2023-05-17T14:36:27;9.18;;;2.65;;
68247;SDS011;55064;49.636;12.164;2023-05-17T14:38:54;10.15;;;2.80;;
68247;SDS011;55064;49.636;12.164;2023-05-17T14:41:21;5.57;;;2.00;;
68247;SDS011;55064;49.636;12.164;2023-05-17T14:43:46;6.23;;;2.23;;
68247;SDS011;55064;49.636;12.164;2023-05-17T14:46:14;9.35;;;2.67;;
68247;SDS011;55064;49.636;12.164;2023-05-17T14:48:40;8.10;;;2.13;;
68247;SDS011;55064;49.636;12.164;2023-05-17T14:51:06;8.77;;;2.55;;
68247;SDS011;55064;49.636;12.164;2023-05-17T14:53:32;7.38;;;2.13;;
68247;SDS011;55064;49.636;12.164;2023-05-17T14:55:57;6.77;;;2.23;;
68247;SDS011;55064;49.636;12.164;2023-05-17T14:58:23;7.23;;;2.30;;
68247;SDS011;55064;49.636;12.164;2023-05-17T15:00:49;7.13;;;2.42;;
68247;SDS011;55064;49.636;12.164;2023-05-17T15:03:18;9.88;;;2.67;;